createdAt,value
2018-11-04T00:00:03.215Z,26.07
2018-11-04T00:02:34.165Z,28.80
2018-11-04T00:05:04.136Z,20.95
2018-11-04T00:07:34.834Z,17.80
2018-11-04T00:10:06.319Z,19.37
2018-11-04T00:12:36.320Z,18.00
2018-11-04T00:15:06.398Z,19.95
2018-11-04T00:17:43.240Z,17.42
2018-11-04T00:20:14.343Z,21.73
2018-11-04T00:22:46.661Z,15.65
2018-11-04T00:25:18.690Z,17.27
2018-11-04T00:27:49.993Z,16.25
2018-11-04T00:30:20.177Z,17.23
2018-11-04T00:32:52.079Z,15.23
2018-11-04T00:35:22.145Z,15.30
2018-11-04T00:37:52.819Z,15.32
2018-11-04T00:40:24.317Z,15.00
2018-11-04T00:42:55.200Z,16.87
2018-11-04T00:45:25.295Z,19.65
2018-11-04T00:47:55.450Z,15.80
2018-11-04T00:50:25.456Z,16.32
2018-11-04T00:52:55.589Z,18.57
2018-11-04T00:55:25.621Z,16.02
2018-11-04T00:57:55.582Z,18.55
2018-11-04T01:00:28.263Z,18.27
2018-11-04T01:03:05.411Z,16.75
2018-11-04T01:05:35.542Z,15.68
2018-11-04T01:08:11.448Z,16.20
2018-11-04T01:10:41.914Z,19.87
2018-11-04T01:13:14.661Z,14.85
2018-11-04T01:15:46.324Z,15.68
2018-11-04T01:18:16.331Z,16.35
2018-11-04T01:20:57.836Z,15.75
2018-11-04T01:23:27.971Z,16.32
2018-11-04T01:25:58.016Z,15.83
2018-11-04T01:28:28.007Z,16.07
2018-11-04T01:30:57.985Z,17.67
2018-11-04T01:33:28.696Z,15.18
2018-11-04T01:35:59.409Z,16.67
2018-11-04T01:38:29.415Z,15.40
2018-11-04T01:40:59.419Z,15.03
2018-11-04T01:43:29.903Z,13.22
2018-11-04T01:45:59.917Z,16.35
2018-11-04T01:48:32.720Z,16.87
2018-11-04T01:51:02.839Z,14.95
2018-11-04T01:53:33.479Z,13.72
2018-11-04T01:56:06.395Z,20.37
2018-11-04T01:58:36.408Z,16.50
2018-11-04T02:01:06.943Z,15.90
2018-11-04T02:03:41.568Z,17.80
2018-11-04T02:06:11.956Z,16.35
2018-11-04T02:08:43.488Z,24.10
2018-11-04T02:11:13.540Z,20.45
2018-11-04T02:13:44.232Z,18.50
2018-11-04T02:16:16.932Z,19.67
2018-11-04T02:18:53.852Z,21.80
2018-11-04T02:21:25.027Z,22.40
2018-11-04T02:23:57.528Z,19.90
2018-11-04T02:26:28.443Z,20.60
2018-11-04T02:29:03.113Z,16.82
2018-11-04T02:31:36.885Z,19.62
2018-11-04T02:34:06.957Z,20.90
2018-11-04T02:36:37.560Z,17.87
2018-11-04T02:39:09.246Z,19.23
2018-11-04T02:41:39.277Z,21.77
2018-11-04T02:44:09.595Z,19.80
2018-11-04T02:46:40.332Z,20.17
2018-11-04T02:49:10.728Z,14.78
2018-11-04T02:51:42.059Z,16.80
2018-11-04T02:54:12.042Z,15.30
2018-11-04T02:56:42.478Z,16.62
2018-11-04T02:59:14.012Z,20.10
2018-11-04T03:01:44.426Z,17.87
2018-11-04T03:04:14.319Z,15.18
2018-11-04T03:06:46.223Z,16.20
2018-11-04T03:09:16.753Z,16.77
2018-11-04T03:11:48.222Z,17.62
2018-11-04T03:14:18.293Z,13.98
2018-11-04T03:16:49.760Z,18.87
2018-11-04T03:19:20.358Z,16.80
2018-11-04T03:21:50.292Z,20.52
2018-11-04T03:24:20.768Z,18.70
2018-11-04T03:26:52.259Z,16.40
2018-11-04T03:29:22.270Z,16.95
2018-11-04T03:31:52.284Z,19.25
2018-11-04T03:34:22.341Z,19.57
2018-11-04T03:36:52.315Z,19.17
2018-11-04T03:39:22.867Z,15.85
2018-11-04T03:41:53.506Z,20.70
2018-11-04T03:44:23.447Z,16.48
2018-11-04T03:46:53.404Z,15.50
2018-11-04T03:49:23.535Z,18.15
2018-11-04T03:51:53.483Z,17.75
2018-11-04T03:54:23.687Z,18.40
2018-11-04T03:56:53.942Z,15.58
2018-11-04T03:59:23.879Z,16.73
2018-11-04T04:01:54.070Z,17.77
2018-11-04T04:04:24.098Z,19.62
2018-11-04T04:06:54.361Z,19.67
2018-11-04T04:09:24.410Z,21.15
2018-11-04T04:11:54.463Z,23.90
2018-11-04T04:14:24.423Z,23.12
2018-11-04T04:16:56.554Z,19.37
2018-11-04T04:19:26.689Z,20.23
2018-11-04T04:21:56.968Z,18.17
2018-11-04T04:24:26.936Z,16.85
2018-11-04T04:26:56.982Z,19.85
2018-11-04T04:29:27.186Z,18.87
2018-11-04T04:31:57.378Z,19.12
2018-11-04T04:34:27.762Z,17.23
2018-11-04T04:36:57.728Z,18.55
2018-11-04T04:39:28.050Z,17.40
2018-11-04T04:41:58.010Z,21.97
2018-11-04T04:44:28.278Z,19.77
2018-11-04T04:46:58.887Z,17.00
2018-11-04T04:49:29.017Z,17.77
2018-11-04T04:51:58.977Z,19.82
2018-11-04T04:54:29.303Z,25.10
2018-11-04T04:56:59.976Z,19.55
2018-11-04T04:59:30.304Z,18.37
2018-11-04T05:02:00.332Z,22.58
2018-11-04T05:04:30.336Z,22.95
2018-11-04T05:07:00.322Z,20.37
2018-11-04T05:09:30.260Z,21.73
2018-11-04T05:12:00.233Z,26.35
2018-11-04T05:14:30.484Z,24.18
2018-11-04T05:17:00.483Z,22.32
2018-11-04T05:19:30.484Z,20.25
2018-11-04T05:22:00.731Z,23.18
2018-11-04T05:24:30.992Z,20.85
2018-11-04T05:27:01.050Z,24.25
2018-11-04T05:29:31.293Z,22.70
2018-11-04T05:32:01.542Z,22.05
2018-11-04T05:34:31.600Z,20.77
2018-11-04T05:37:01.925Z,24.75
2018-11-04T05:39:32.122Z,20.08
2018-11-04T05:42:02.358Z,20.57
2018-11-04T05:44:32.701Z,20.08
2018-11-04T05:47:02.849Z,22.45
2018-11-04T05:49:32.963Z,21.07
2018-11-04T05:52:03.078Z,19.52
2018-11-04T05:54:33.206Z,20.92
2018-11-04T05:57:03.407Z,20.92
2018-11-04T05:59:33.402Z,22.65
2018-11-04T06:02:03.364Z,25.60
2018-11-04T06:04:33.642Z,19.95
2018-11-04T06:07:03.670Z,22.70
2018-11-04T06:09:33.709Z,24.95
2018-11-04T06:12:03.813Z,23.40
2018-11-04T06:14:33.755Z,23.10
2018-11-04T06:17:03.919Z,23.25
2018-11-04T06:19:33.973Z,27.95
2018-11-04T06:22:03.927Z,27.20
2018-11-04T06:24:34.203Z,23.22
2018-11-04T06:27:04.855Z,23.25
2018-11-04T06:29:34.903Z,26.30
2018-11-04T06:32:05.324Z,24.20
2018-11-04T06:34:35.341Z,26.62
2018-11-04T06:37:06.369Z,22.73
2018-11-04T06:39:36.470Z,28.35
2018-11-04T06:42:06.748Z,19.90
2018-11-04T06:44:36.849Z,21.15
2018-11-04T06:47:07.066Z,23.10
2018-11-04T06:49:45.650Z,23.77
2018-11-04T06:52:19.020Z,25.20
2018-11-04T06:54:49.023Z,22.93
2018-11-04T06:57:18.940Z,23.57
2018-11-04T07:02:38.241Z,22.27
2018-11-04T07:05:13.757Z,27.15
2018-11-04T07:07:43.813Z,24.85
2018-11-04T07:10:15.117Z,24.95
2018-11-04T07:12:46.034Z,25.95
2018-11-04T07:15:16.361Z,22.52
2018-11-04T07:17:46.855Z,28.75
2018-11-04T07:20:24.048Z,33.10
2018-11-04T07:22:54.156Z,29.55
2018-11-04T07:25:27.853Z,26.57
2018-11-04T07:27:58.150Z,27.80
2018-11-04T07:30:28.367Z,29.82
2018-11-04T07:33:01.035Z,25.20
2018-11-04T07:35:30.917Z,29.37
2018-11-04T07:38:00.812Z,28.90
2018-11-04T07:40:30.805Z,30.95
2018-11-04T07:43:00.832Z,26.45
2018-11-04T07:45:30.821Z,30.43
2018-11-04T07:48:01.047Z,31.57
2018-11-04T07:50:31.035Z,29.60
2018-11-04T07:53:01.210Z,40.63
2018-11-04T07:55:31.192Z,48.58
2018-11-04T07:58:01.283Z,38.30
2018-11-04T08:00:31.317Z,43.87
2018-11-04T08:03:01.348Z,41.30
2018-11-04T08:05:31.512Z,31.97
2018-11-04T08:08:01.606Z,42.30
2018-11-04T08:10:31.590Z,37.03
2018-11-04T08:13:01.562Z,28.95
2018-11-04T08:15:31.609Z,39.33
2018-11-04T08:18:01.642Z,28.98
2018-11-04T08:20:31.734Z,33.02
2018-11-04T08:23:01.834Z,29.52
2018-11-04T08:25:31.863Z,33.48
2018-11-04T08:28:01.917Z,31.35
2018-11-04T08:30:31.981Z,32.70
2018-11-04T08:33:01.858Z,34.40
2018-11-04T08:35:32.227Z,32.93
2018-11-04T08:38:02.399Z,32.98
2018-11-04T08:40:32.432Z,33.35
2018-11-04T08:43:02.381Z,32.53
2018-11-04T08:45:32.674Z,31.35
2018-11-04T08:48:02.849Z,35.10
2018-11-04T08:50:32.871Z,36.05
2018-11-04T08:53:02.873Z,33.10
2018-11-04T08:55:33.109Z,37.80
2018-11-04T08:58:03.200Z,38.00
2018-11-04T09:00:33.186Z,33.45
2018-11-04T09:03:03.352Z,37.42
2018-11-04T09:05:33.601Z,38.63
2018-11-04T09:11:12.364Z,41.05
2018-11-04T09:13:42.902Z,36.10
2018-11-04T09:16:13.108Z,33.48
2018-11-04T09:18:44.374Z,40.30
2018-11-04T09:21:14.626Z,38.13
2018-11-04T09:23:44.830Z,35.40
2018-11-04T09:26:14.639Z,34.38
2018-11-04T09:28:55.094Z,37.00
2018-11-04T09:31:34.053Z,35.33
2018-11-04T09:34:04.565Z,34.40
2018-11-04T09:36:35.065Z,38.00
2018-11-04T09:39:06.792Z,41.13
2018-11-04T09:41:36.621Z,36.50
2018-11-04T09:44:07.242Z,35.80
2018-11-04T09:49:48.250Z,66.02
2018-11-04T09:52:18.319Z,39.98
2018-11-04T09:54:48.413Z,41.75
2018-11-04T09:57:18.474Z,36.15
2018-11-04T09:59:49.030Z,35.40
2018-11-04T10:02:19.134Z,34.88
2018-11-04T10:04:49.767Z,40.03
2018-11-04T10:07:20.302Z,40.12
2018-11-04T10:09:50.145Z,39.13
2018-11-04T10:12:20.209Z,37.38
2018-11-04T10:14:50.591Z,37.60
2018-11-04T10:17:20.750Z,35.73
2018-11-04T10:19:52.856Z,36.75
2018-11-04T10:22:46.565Z,37.13
2018-11-04T10:28:28.843Z,42.95
2018-11-04T10:45:51.183Z,43.25
2018-11-04T10:54:11.395Z,41.60
2018-11-04T10:56:41.543Z,38.80
2018-11-04T10:59:15.653Z,41.33
2018-11-04T11:01:51.205Z,38.13
2018-11-04T11:07:21.407Z,42.40
2018-11-04T11:10:03.645Z,38.77
2018-11-04T11:12:33.982Z,38.13
2018-11-04T11:15:04.110Z,36.90
2018-11-04T11:17:34.437Z,40.90
2018-11-04T11:23:00.835Z,41.20
2018-11-04T11:28:38.577Z,41.50
2018-11-04T11:31:08.764Z,41.50
2018-11-04T11:33:41.821Z,43.07
2018-11-04T11:36:18.024Z,40.60
2018-11-04T11:47:58.493Z,39.70
2018-11-04T11:53:16.756Z,40.03
2018-11-04T11:55:46.874Z,42.53
2018-11-04T11:58:17.312Z,41.70
2018-11-04T12:00:47.489Z,40.97
2018-11-04T12:03:36.946Z,41.20
2018-11-04T12:06:07.502Z,37.30
2018-11-04T12:08:39.528Z,40.47
2018-11-04T12:14:37.678Z,36.90
2018-11-04T12:21:33.682Z,37.50
2018-11-04T12:24:04.156Z,35.63
2018-11-04T12:46:28.162Z,32.03
2018-11-04T12:49:21.660Z,33.60
2018-11-04T12:55:48.846Z,33.37
2018-11-04T13:01:30.334Z,34.70
2018-11-04T13:07:17.763Z,30.60
2018-11-04T13:10:02.516Z,29.63
2018-11-04T13:12:33.203Z,33.30
2018-11-04T13:15:23.366Z,30.80
2018-11-04T13:17:55.724Z,30.92
2018-11-04T13:20:48.279Z,33.80
2018-11-04T13:23:19.305Z,31.00
2018-11-04T13:26:07.786Z,32.30
2018-11-04T13:28:40.522Z,32.57
2018-11-04T13:31:11.031Z,27.77
2018-11-04T13:33:44.179Z,27.00
2018-11-04T13:36:20.181Z,25.70
2018-11-04T13:38:52.593Z,26.40
2018-11-04T13:41:24.029Z,24.63
2018-11-04T13:47:00.609Z,30.20
2018-11-04T13:49:31.266Z,32.57
2018-11-04T13:55:11.576Z,28.33
2018-11-04T13:57:53.588Z,33.57
2018-11-04T14:00:23.826Z,28.60
2018-11-04T14:03:04.363Z,26.60
2018-11-04T14:06:55.338Z,28.50
2018-11-04T14:09:26.223Z,26.63
2018-11-04T14:12:02.618Z,26.90
2018-11-04T14:14:32.802Z,28.50
2018-11-04T14:17:02.725Z,27.20
2018-11-04T14:19:33.760Z,28.03
2018-11-04T14:24:52.471Z,27.03
2018-11-04T14:27:22.773Z,25.90
2018-11-04T14:29:58.559Z,28.03
2018-11-04T14:32:28.769Z,22.53
2018-11-04T14:35:09.972Z,25.93
2018-11-04T14:37:40.865Z,27.10
2018-11-04T14:40:13.144Z,30.90
2018-11-04T14:42:44.593Z,25.27
2018-11-04T14:45:17.079Z,24.07
2018-11-04T14:47:52.819Z,23.67
2018-11-04T14:50:31.339Z,26.03
2018-11-04T14:53:01.622Z,30.53
2018-11-04T14:55:31.564Z,24.87
2018-11-04T14:58:01.603Z,25.80
2018-11-04T15:00:41.051Z,26.57
2018-11-04T15:03:11.969Z,37.50
2018-11-04T15:06:01.123Z,34.47
2018-11-04T15:08:31.182Z,32.47
2018-11-04T15:11:01.245Z,22.03
2018-11-04T15:13:31.333Z,23.43
2018-11-04T15:16:01.523Z,23.73
2018-11-04T15:18:31.744Z,21.73
2018-11-04T15:21:07.195Z,22.37
2018-11-04T15:27:08.480Z,23.33
2018-11-04T15:33:21.958Z,22.67
2018-11-04T15:35:52.268Z,22.07
2018-11-04T15:38:23.401Z,24.30
2018-11-04T15:40:53.496Z,24.03
2018-11-04T15:43:51.815Z,22.57
2018-11-04T15:46:21.847Z,22.82
2018-11-04T15:48:52.181Z,20.20
2018-11-04T15:51:30.548Z,23.90
2018-11-04T15:54:00.597Z,21.63
2018-11-04T15:56:30.881Z,18.90
2018-11-04T15:59:19.078Z,19.17
2018-11-04T16:01:49.026Z,19.20
2018-11-04T16:04:19.046Z,18.83
2018-11-04T16:06:49.194Z,18.17
2018-11-04T16:09:19.973Z,23.10
2018-11-04T16:11:49.862Z,19.33
2018-11-04T16:14:20.003Z,18.90
2018-11-04T16:16:50.074Z,19.13
2018-11-04T16:22:04.782Z,21.57
2018-11-04T16:24:34.740Z,19.90
2018-11-04T16:27:04.751Z,19.03
2018-11-04T16:29:35.882Z,19.50
2018-11-04T16:38:18.277Z,20.97
2018-11-04T16:40:48.626Z,17.23
2018-11-04T16:43:18.599Z,15.73
2018-11-04T16:45:50.759Z,16.57
2018-11-04T16:48:26.689Z,17.67
2018-11-04T16:50:56.972Z,15.97
2018-11-04T16:53:26.924Z,17.10
2018-11-04T16:55:57.026Z,15.57
2018-11-04T16:58:26.918Z,17.33
2018-11-04T17:01:03.368Z,78.93
2018-11-04T17:03:34.083Z,67.40
2018-11-04T17:06:03.932Z,66.37
2018-11-04T17:08:34.219Z,27.70
2018-11-04T17:11:04.193Z,18.80
2018-11-04T17:13:53.380Z,19.50
2018-11-04T17:16:53.574Z,16.90
2018-11-04T17:19:25.389Z,15.97
2018-11-04T17:21:55.496Z,17.80
2018-11-04T17:24:25.607Z,18.63
2018-11-04T17:27:22.059Z,18.60
2018-11-04T17:33:14.091Z,19.23
2018-11-04T17:35:44.282Z,16.67
2018-11-04T17:41:18.975Z,29.93
2018-11-04T17:46:27.895Z,18.80
2018-11-04T17:48:57.820Z,21.97
2018-11-04T17:51:27.751Z,17.67
2018-11-04T17:53:57.738Z,17.10
2018-11-04T17:56:27.762Z,17.70
2018-11-04T17:59:08.036Z,16.87
2018-11-04T18:01:38.195Z,19.23
2018-11-04T18:04:08.201Z,16.87
2018-11-04T18:06:38.376Z,16.17
2018-11-04T18:09:10.016Z,18.67
2018-11-04T18:11:40.481Z,16.23
2018-11-04T18:14:49.522Z,19.43
2018-11-04T18:17:28.144Z,18.10
2018-11-04T18:19:58.243Z,16.33
2018-11-04T18:22:28.163Z,20.13
2018-11-04T18:24:58.908Z,14.97
2018-11-04T18:27:49.906Z,19.43
2018-11-04T18:30:25.366Z,19.37
2018-11-04T18:32:55.454Z,18.47
2018-11-04T18:35:26.317Z,20.00
2018-11-04T18:38:12.984Z,16.90
2018-11-04T18:40:47.031Z,20.10
2018-11-04T18:55:26.543Z,17.37
2018-11-04T19:00:47.162Z,16.87
2018-11-04T19:03:17.368Z,20.80
2018-11-04T19:05:47.393Z,20.43
2018-11-04T19:08:23.434Z,16.67
2018-11-04T19:10:53.805Z,15.63
2018-11-04T19:13:23.916Z,15.93
2018-11-04T19:15:54.141Z,14.57
2018-11-04T19:18:41.865Z,16.27
2018-11-04T19:21:20.803Z,15.10
2018-11-04T19:23:51.284Z,14.53
2018-11-04T19:26:22.235Z,17.50
2018-11-04T19:28:52.941Z,16.60
2018-11-04T19:31:23.926Z,18.03
2018-11-04T19:33:57.143Z,16.60
2018-11-04T19:36:27.707Z,15.33
2018-11-04T19:38:57.805Z,18.57
2018-11-04T19:41:27.851Z,13.77
2018-11-04T19:44:04.808Z,17.93
2018-11-04T19:46:34.849Z,18.63
2018-11-04T19:49:05.492Z,19.83
2018-11-04T19:51:36.235Z,18.73
2018-11-04T19:54:06.883Z,18.73
2018-11-04T19:56:36.971Z,16.60
2018-11-04T19:59:07.036Z,17.87
2018-11-04T20:01:37.030Z,18.70
2018-11-04T20:04:28.008Z,19.70
2018-11-04T20:06:58.089Z,18.77
2018-11-04T20:09:30.097Z,23.87
2018-11-04T20:12:01.032Z,19.07
2018-11-04T20:14:31.949Z,16.50
2018-11-04T20:17:03.549Z,18.63
2018-11-04T20:19:38.867Z,19.63
2018-11-04T20:22:08.765Z,18.93
2018-11-04T20:24:43.760Z,26.10
2018-11-04T20:27:13.623Z,19.13
2018-11-04T20:29:43.645Z,22.00
2018-11-04T20:32:18.565Z,26.13
2018-11-04T20:34:51.208Z,21.07
2018-11-04T20:37:24.527Z,23.03
2018-11-04T20:40:00.862Z,26.67
2018-11-04T20:42:31.997Z,21.90
2018-11-04T20:45:03.041Z,25.03
2018-11-04T20:47:38.023Z,22.23
2018-11-04T20:50:13.877Z,19.73
2018-11-04T20:52:44.590Z,20.77
2018-11-04T20:55:15.739Z,21.07
2018-11-04T20:57:47.667Z,21.63
2018-11-04T21:00:19.534Z,22.60
2018-11-04T21:05:50.316Z,24.73
2018-11-04T21:08:20.547Z,23.37
2018-11-04T21:10:50.771Z,21.48
2018-11-04T21:13:21.007Z,22.67
2018-11-04T21:15:50.998Z,23.62
2018-11-04T21:18:21.016Z,20.73
2018-11-04T21:20:51.008Z,24.03
2018-11-04T21:23:21.068Z,19.90
2018-11-04T21:25:52.024Z,20.10
2018-11-04T21:28:22.035Z,19.15
2018-11-04T21:31:07.900Z,24.87
2018-11-04T21:33:39.797Z,20.40
2018-11-04T21:36:10.069Z,22.95
2018-11-04T21:38:41.127Z,21.50
2018-11-04T21:41:11.246Z,21.85
2018-11-04T21:43:43.685Z,21.60
2018-11-04T21:46:13.753Z,21.62
2018-11-04T21:48:57.396Z,18.98
2018-11-04T21:51:27.635Z,23.00
2018-11-04T21:53:58.815Z,24.35
2018-11-04T21:56:28.906Z,24.20
2018-11-04T21:58:58.833Z,18.50
2018-11-04T22:01:28.772Z,18.27
2018-11-04T22:04:02.147Z,20.17
2018-11-04T22:06:31.847Z,22.52
2018-11-04T22:22:41.572Z,17.95
2018-11-04T22:25:27.398Z,20.68
2018-11-04T22:27:57.428Z,19.80
2018-11-04T22:30:44.841Z,18.77
2018-11-04T22:33:15.215Z,20.40
2018-11-04T22:38:54.940Z,20.00
2018-11-04T22:41:26.464Z,21.93
2018-11-04T22:43:56.734Z,25.55
2018-11-04T22:46:26.721Z,22.90
2018-11-04T22:52:09.182Z,21.73
2018-11-04T22:54:39.394Z,23.73
2018-11-04T22:57:09.599Z,26.48
2018-11-04T23:02:40.051Z,22.27
2018-11-04T23:05:15.006Z,19.27
2018-11-04T23:07:45.715Z,22.52
2018-11-04T23:10:16.013Z,28.40
2018-11-04T23:12:46.060Z,19.82
2018-11-04T23:15:30.186Z,21.70
2018-11-04T23:21:06.673Z,20.40
2018-11-04T23:23:36.668Z,22.07
2018-11-04T23:26:07.538Z,23.18
2018-11-04T23:28:50.284Z,20.52
2018-11-04T23:31:48.164Z,24.32
2018-11-04T23:34:18.369Z,24.45
2018-11-04T23:36:48.392Z,23.67
2018-11-04T23:39:27.027Z,24.05
2018-11-04T23:42:21.209Z,28.02
2018-11-04T23:44:51.445Z,24.72
2018-11-04T23:50:30.520Z,22.58
2018-11-04T23:53:00.448Z,22.70
2018-11-04T23:55:30.648Z,22.37
2018-11-04T23:58:16.407Z,23.98
